Speed, Indiana
Current Conditions -  °F | °C
As of 1:53 AM on Monday 22 Dec 2014 (Local Time) from KLOU Reporting Station
Overcast Overcast  
Wind Chill:   Ceiling: 4700
Heat Index:   Visibility: 10mi
Dew Point: -2°   Wind: 5mph
Humidity: 70%   Direction: 90°E
Pressure: 30.03"   Gusts: NA
Location:  38.3931°N, 85.7713°W
Report Text: KLOU 220653Z AUTO 09004KT 10SM OVC047 03/M02 A3003 RMK AO2 SLP173 T00281022
Loading
Personal Weather Stations






























Interactive Weather Map New forecast layout! Learn more

10-Day Weather Forecast

Advertisements
Track Severe Weather on mobile